Aviation Digital Data Service (ADDS)

Output produced by METARs form (1223 UTC 15 November 2018)
found at http://www.aviationweather.gov/metar/data/
 
TAF SCFA 151015Z 1512/1612 35004KT 9999 OVC033 TX20/1516Z TN15/1606Z 
     BECMG 1513/1515 18004KT SCT035 
     BECMG 1516/1518 22015KT SCT023 
     BECMG 1600/1602 17007KT BKN027 
     BECMG 1607/ 1609 36004KT OVC030
       
TAF SCAR 151015Z 1512/1612 18004KT 9999 OVC030 TX22/1518Z TN19/1606Z 
     BECMG 1515/1517 22014KT CAVOK 
     BECMG 1523/1601 18004KT OVC030 
     BECMG 1604/1606 14004KT 
     BECMG 1609/1611 06004KT
       
TAF SCBA 151019Z 1512/1612 31020KT CAVOK TN04/1512Z TX13/1519Z 
     TEMPO 1519/1521 31025G35KT SCT025 
     BECMG 1523/1601 32020KT
       
TAF SCCF 151015Z 1512/1612 11017KT CAVOK TX25/1517Z TN06/1606Z 
     BECMG 1513/1514 07008KT 
     BECMG 1516/1518 27020KT 
     TEMPO 1519/1522 28025G35KT 
     BECMG 1523/1601 26012KT 
     BECMG 1603/1605 11016KT
       
TAF SCIE 151020Z 1512/1612 02004KT 9999 BKN010 BKN020 TX19/1518Z TN11/1611Z 
     TEMPO 1512/1514 3000 -DZ BR OVC006 
     BECMG 1514/1516 21005KT FEW012 SCT045 
     BECMG 1518/1520 24010KT CAVOK 
     BECMG 1600/1602 21006KT
       
TAF SCAT 151015Z 1512/1612 36015KT 9999 OVC015 TX21/1518Z TN13/1606Z 
     BECMG 1516/1518 28011KT CAVOK 
     BECMG 1520/1522 26007KT 
     BECMG 1600/1602 22004KT OVC013 
     BECMG 1606/1608 34010KT 8000 OVC008 
     TEMPO 1609/1612 6000 -DZ OVC004
       
TAF SCCY 151027Z 1512/1524 25010KT 9999 SCT020 TN06/1512Z TX14/1518Z 
     TEMPO 1514/1517 24015G25KT
       
TAF SCDA 151015Z 1512/1612 18004KT 9999 OVC035 TX22/1518Z TN18/1606Z 
     BECMG 1514/1516 27010KT SCT035 
     BECMG 1520/1522 23007KT OVC033 
     BECMG 1602/1604 36004KT 
     BECMG 1609/1611 14004KT
       
TAF SCSE 151020Z 1512/1612 12004KT CAVOK TX23/1518Z TN12/1611Z 
     TEMPO 1512/1514 SCT007 BKN012 
     BECMG 1515/1517 28010KT 
     BECMG 1600/1602 29004KT 
     TEMPO 1606/1612 11004KT SCT005 BKN010
       
TAF SCJO 151022Z 1512/1524 20005KT 0500 BCFG FEW005 TN04/1512Z TX14/1518Z 
     BECMG 1513/1515 CAVOK
       
TAF SCTE 151014Z 1512/1612 24005KT 9999 FEW015 TN04/1512Z TX14/1518Z 
     BECMG 1515/1517 17008KT CAVOK 
     BECMG 1517/1519 
     BECMG 1602/1604 VRB02KT 
     TEMPO 1608/1612 0800 BCFG FEW002
       
TAF SCNT 151058Z 1512/1600 28020G30KT 9000 FEW020 SCT037 TN06/1512Z TX12/1518Z 
     BECMG 1514/1516 27025G37KT 
     TEMPO 1516/1520 8000 -SHRA SCT015 
     BECMG 1520/1522 28020G35KT
       
TAF SCCI 151057Z 1512/1612 27020KT 9000 SCT035 TN04/1609Z TX11/1518Z 
     BECMG 1512/1514 27025G35KT 8000 -SHRA -RA FEW012 SCT020 
     TEMPO 1516/1521 28030G45KT 
     BECMG 1522/1600 27022G32KT 
     TEMPO 1602/1606 27020KT 
     BECMG 1606/1608 26028G28KT
       
TAF SCEL 151020Z 1512/1612 VRB02KT 8000 NSC TX29/1518Z TN10/1611Z 
     BECMG 1514/1516 17004KT CAVOK 
     BECMG 1518/1520 21012KT 
     BECMG 1601/1603 16005KT 
     TEMPO 1608/1612 VRB02KT 7000 NSC